Time;durP1;ratioP1;P1;durP2;ratioP2;P2;SDS_P1;SDS_P2;PMS_P1;PMS_P2;Temp;Humidity;BMP_temperature;BMP_pressure;BME280_temperature;BME280_humidity;BME280_pressure;Samples;Min_cycle;Max_cycle;Signal;HPM_P1;HPM_P2
2023/09/29 00:01:44;;;;;;;1999.90;999.90;;;15.40;99.90;;;;;;4979732;28;20108;-67
2023/09/29 00:04:10;;;;;;;1999.90;999.90;;;15.50;99.90;;;;;;4988092;28;20048;-67
2023/09/29 00:06:36;;;;;;;1999.90;999.90;;;15.50;99.90;;;;;;4988505;28;20038;-67
2023/09/29 00:09:06;;;;;;;1999.90;999.90;;;15.50;99.90;;;;;;4984334;28;20047;-67
2023/09/29 00:11:32;;;;;;;1999.90;999.90;;;15.50;99.90;;;;;;4974304;28;20501;-67
2023/09/29 00:13:59;;;;;;;1999.90;999.90;;;15.60;99.90;;;;;;4982340;28;20545;-67
2023/09/29 00:16:24;;;;;;;1999.90;999.90;;;15.60;99.90;;;;;;5008374;28;20376;-67
2023/09/29 00:18:50;;;;;;;1999.90;999.90;;;15.70;99.90;;;;;;4986322;28;20050;-67
2023/09/29 00:21:16;;;;;;;1999.90;999.90;;;15.60;99.90;;;;;;4986539;28;20509;-67
2023/09/29 00:23:41;;;;;;;1999.90;999.90;;;15.70;99.90;;;;;;4977501;28;20085;-67
2023/09/29 00:26:07;;;;;;;1999.90;999.90;;;15.70;99.90;;;;;;5006306;28;20050;-67
2023/09/29 00:28:33;;;;;;;1999.90;999.90;;;15.70;99.90;;;;;;4979479;28;20391;-67
2023/09/29 00:30:59;;;;;;;1999.90;999.90;;;15.70;99.90;;;;;;5018843;28;20545;-67
2023/09/29 00:33:25;;;;;;;1999.90;999.90;;;15.70;99.90;;;;;;4985082;28;20038;-67
2023/09/29 00:35:51;;;;;;;1999.90;999.90;;;15.70;99.90;;;;;;4981529;28;20042;-67
2023/09/29 00:38:16;;;;;;;1999.90;999.90;;;15.70;99.90;;;;;;4983142;28;20089;-67
2023/09/29 00:40:42;;;;;;;1999.90;999.90;;;15.70;99.90;;;;;;4983166;28;20042;-67
2023/09/29 00:43:08;;;;;;;1999.90;999.90;;;15.70;99.90;;;;;;4979149;28;20050;-67
2023/09/29 00:45:35;;;;;;;1999.90;999.90;;;15.70;99.90;;;;;;4988205;28;20038;-67
2023/09/29 00:48:07;;;;;;;1999.90;999.90;;;15.70;99.90;;;;;;4987725;28;20049;-67
2023/09/29 00:50:34;;;;;;;1999.90;999.90;;;15.70;99.90;;;;;;4986237;28;20039;-67
2023/09/29 00:53:09;;;;;;;1999.90;999.90;;;15.60;99.90;;;;;;4988169;28;20057;-67
2023/09/29 00:55:36;;;;;;;1999.90;999.90;;;15.60;99.90;;;;;;4985169;28;20038;-67
2023/09/29 00:58:02;;;;;;;1999.90;999.90;;;15.60;99.90;;;;;;4988422;28;20355;-68
2023/09/29 01:02:55;;;;;;;1999.90;999.90;;;15.60;99.90;;;;;;4984520;28;20167;-67
2023/09/29 01:05:21;;;;;;;1999.90;999.90;;;15.50;99.90;;;;;;4964097;28;20054;-67
2023/09/29 01:07:47;;;;;;;1999.90;999.90;;;15.50;99.90;;;;;;4984378;28;20072;-67
2023/09/29 01:10:13;;;;;;;1999.90;999.90;;;15.50;99.90;;;;;;4978060;28;20054;-67
2023/09/29 01:12:43;;;;;;;1999.90;999.90;;;15.50;99.90;;;;;;4974403;28;20035;-67
2023/09/29 01:15:13;;;;;;;1999.90;999.90;;;15.50;99.90;;;;;;4975785;28;20057;-67
2023/09/29 01:17:43;;;;;;;1999.90;999.90;;;15.50;99.90;;;;;;4977777;28;20444;-67
2023/09/29 01:20:18;;;;;;;1999.90;999.90;;;15.50;99.90;;;;;;4982397;28;20050;-67
2023/09/29 01:22:47;;;;;;;1999.90;999.90;;;15.40;99.90;;;;;;4978945;28;20406;-67
2023/09/29 01:25:17;;;;;;;1999.90;999.90;;;15.40;99.90;;;;;;4985640;28;20049;-67
2023/09/29 01:27:42;;;;;;;1999.90;999.90;;;15.40;99.90;;;;;;4973146;28;20065;-67
2023/09/29 01:30:09;;;;;;;1999.90;999.90;;;15.40;99.90;;;;;;4987045;28;20074;-67
2023/09/29 01:32:35;;;;;;;1999.90;999.90;;;15.40;99.90;;;;;;4987377;28;20060;-67
2023/09/29 01:35:02;;;;;;;1999.90;999.90;;;15.40;99.90;;;;;;5008841;28;20046;-67
2023/09/29 01:37:28;;;;;;;1999.90;999.90;;;15.40;99.90;;;;;;4976149;28;20042;-67
2023/09/29 01:39:54;;;;;;;1999.90;999.90;;;15.40;99.90;;;;;;4980344;28;20944;-67
2023/09/29 01:42:19;;;;;;;1999.90;999.90;;;15.40;99.90;;;;;;4974524;28;20129;-67
2023/09/29 01:44:46;;;;;;;1999.90;999.90;;;15.40;99.90;;;;;;4982745;28;20081;-67
2023/09/29 01:47:12;;;;;;;1999.90;999.90;;;15.40;99.90;;;;;;4974288;28;20070;-67
2023/09/29 01:49:37;;;;;;;1999.90;999.90;;;15.50;99.90;;;;;;4983750;28;20046;-67
2023/09/29 01:52:03;;;;;;;1999.90;999.90;;;15.50;99.90;;;;;;4981497;28;20047;-67
2023/09/29 01:54:29;;;;;;;1999.90;999.90;;;15.50;99.90;;;;;;4977300;28;20050;-67
2023/09/29 01:56:54;;;;;;;1999.90;999.90;;;15.40;99.90;;;;;;4971262;28;20414;-67
2023/09/29 01:59:20;;;;;;;1999.90;999.90;;;15.50;99.90;;;;;;4979526;28;20120;-67
2023/09/29 02:01:45;;;;;;;1999.90;999.90;;;15.50;99.90;;;;;;5017892;28;20054;-67
2023/09/29 02:04:11;;;;;;;1999.90;999.90;;;15.50;99.90;;;;;;4984144;28;20153;-67
2023/09/29 02:06:40;;;;;;;1999.90;999.90;;;15.50;99.90;;;;;;4976888;28;20141;-67
2023/09/29 02:09:09;;;;;;;1999.90;999.90;;;15.50;99.90;;;;;;4977186;28;20070;-67
2023/09/29 02:11:36;;;;;;;1999.90;999.90;;;15.50;99.90;;;;;;4984432;28;20046;-67
2023/09/29 02:14:03;;;;;;;1999.90;999.90;;;15.50;99.90;;;;;;4985269;28;20067;-67
2023/09/29 02:16:30;;;;;;;1999.90;999.90;;;15.50;99.90;;;;;;4984041;28;20050;-67
2023/09/29 02:18:56;;;;;;;1999.90;999.90;;;15.50;99.90;;;;;;4975317;28;20070;-67
2023/09/29 02:21:22;;;;;;;1999.90;999.90;;;15.50;99.90;;;;;;4986212;28;20121;-67
2023/09/29 02:23:48;;;;;;;1999.90;999.90;;;15.40;99.90;;;;;;4986406;28;20100;-67
2023/09/29 02:26:14;;;;;;;1999.90;999.90;;;15.40;99.90;;;;;;4969326;28;20043;-67
2023/09/29 02:28:40;;;;;;;1999.90;999.90;;;15.50;99.90;;;;;;4983109;28;20035;-67
2023/09/29 02:31:13;;;;;;;1999.90;999.90;;;15.50;99.90;;;;;;4983824;28;20494;-67
2023/09/29 02:33:39;;;;;;;1999.90;999.90;;;15.50;99.90;;;;;;4986367;28;20674;-67
2023/09/29 02:36:06;;;;;;;1999.90;999.90;;;15.50;99.90;;;;;;4983447;28;20046;-67
2023/09/29 02:38:31;;;;;;;1999.90;999.90;;;15.50;99.90;;;;;;4979400;28;20039;-67
2023/09/29 02:40:59;;;;;;;1999.90;999.90;;;15.40;99.90;;;;;;4979795;28;20089;-67
2023/09/29 02:43:27;;;;;;;1999.90;999.90;;;15.50;99.90;;;;;;4974337;28;20054;-67
2023/09/29 02:45:53;;;;;;;1999.90;999.90;;;15.40;99.90;;;;;;4979926;28;20046;-67
2023/09/29 02:48:19;;;;;;;1999.90;999.90;;;15.40;99.90;;;;;;4993233;28;20058;-67
2023/09/29 02:50:45;;;;;;;1999.90;999.90;;;15.40;99.90;;;;;;4977130;28;20038;-67
2023/09/29 02:53:10;;;;;;;1999.90;999.90;;;15.40;99.90;;;;;;4984462;28;20043;-67
2023/09/29 02:55:37;;;;;;;1999.90;999.90;;;15.40;99.90;;;;;;4986488;28;20492;-67
2023/09/29 02:58:03;;;;;;;1999.90;999.90;;;15.40;99.90;;;;;;4976201;28;20460;-67
2023/09/29 03:00:31;;;;;;;1999.90;999.90;;;15.40;99.90;;;;;;4978462;28;20050;-67
2023/09/29 03:02:57;;;;;;;1999.90;999.90;;;15.40;99.90;;;;;;4980948;28;20580;-67
2023/09/29 03:05:23;;;;;;;1999.90;999.90;;;15.40;99.90;;;;;;4960157;28;20129;-68
2023/09/29 03:07:49;;;;;;;1999.90;999.90;;;15.40;99.90;;;;;;4980080;28;20049;-67
2023/09/29 03:10:16;;;;;;;1999.90;999.90;;;15.40;99.90;;;;;;4979072;28;20050;-67
2023/09/29 03:12:43;;;;;;;1999.90;999.90;;;15.40;99.90;;;;;;4985941;28;20091;-67
2023/09/29 03:15:11;;;;;;;1999.90;999.90;;;15.40;99.90;;;;;;4980834;28;20054;-67
2023/09/29 03:17:37;;;;;;;1999.90;999.90;;;15.40;99.90;;;;;;4982421;28;20091;-67
2023/09/29 03:20:11;;;;;;;1999.90;999.90;;;15.30;99.90;;;;;;4979573;28;20035;-67
2023/09/29 03:22:38;;;;;;;1999.90;999.90;;;15.30;99.90;;;;;;4983073;28;20046;-67
2023/09/29 03:25:06;;;;;;;1999.90;999.90;;;15.30;99.90;;;;;;4981939;28;20414;-67
2023/09/29 03:27:34;;;;;;;1999.90;999.90;;;15.30;99.90;;;;;;4990834;28;20089;-67
2023/09/29 03:30:00;;;;;;;1999.90;999.90;;;15.30;99.90;;;;;;4984683;28;20060;-67
2023/09/29 03:32:26;;;;;;;1999.90;999.90;;;15.30;99.90;;;;;;4978062;28;20050;-67
2023/09/29 03:34:52;;;;;;;1999.90;999.90;;;15.40;99.90;;;;;;4985112;28;20379;-67
2023/09/29 03:37:19;;;;;;;1999.90;999.90;;;15.40;99.90;;;;;;4980088;28;20458;-67
2023/09/29 03:39:44;;;;;;;1999.90;999.90;;;15.40;99.90;;;;;;4977513;28;20049;-67
2023/09/29 03:42:11;;;;;;;1999.90;999.90;;;15.40;99.90;;;;;;4977393;28;20063;-67
2023/09/29 03:44:36;;;;;;;1999.90;999.90;;;15.40;99.90;;;;;;4984933;28;20830;-67
2023/09/29 03:47:03;;;;;;;1999.90;999.90;;;15.50;99.90;;;;;;4989647;28;20143;-67
2023/09/29 03:49:31;;;;;;;1999.90;999.90;;;15.50;99.90;;;;;;4984864;28;20140;-67
2023/09/29 03:51:57;;;;;;;1999.90;999.90;;;15.60;99.90;;;;;;4987984;28;20054;-67
2023/09/29 03:54:23;;;;;;;1999.90;999.90;;;15.60;99.90;;;;;;4980496;28;20501;-68
2023/09/29 03:56:52;;;;;;;1999.90;999.90;;;15.60;99.90;;;;;;4989205;28;20038;-67
2023/09/29 03:59:18;;;;;;;1999.90;999.90;;;15.70;99.90;;;;;;4988688;28;20038;-67
2023/09/29 04:01:45;;;;;;;1999.90;999.90;;;15.70;99.90;;;;;;4985980;28;20072;-67
2023/09/29 04:04:11;;;;;;;1999.90;999.90;;;15.80;99.90;;;;;;4981931;28;20046;-67
2023/09/29 04:06:37;;;;;;;1999.90;999.90;;;15.80;99.90;;;;;;4979404;28;20454;-67
2023/09/29 04:09:04;;;;;;;1999.90;999.90;;;15.90;99.90;;;;;;4985553;28;20046;-67
2023/09/29 04:11:30;;;;;;;1999.90;999.90;;;15.90;99.90;;;;;;4980778;28;20034;-67
2023/09/29 04:13:56;;;;;;;1999.90;999.90;;;16.00;99.90;;;;;;4989003;28;20390;-67
2023/09/29 04:16:22;;;;;;;1999.90;999.90;;;16.00;99.90;;;;;;4977649;28;20118;-67
2023/09/29 04:18:48;;;;;;;1999.90;999.90;;;16.00;99.90;;;;;;4978312;28;20092;-67
2023/09/29 04:21:15;;;;;;;1999.90;999.90;;;16.10;99.90;;;;;;4977567;28;20061;-68
2023/09/29 04:23:41;;;;;;;1999.90;999.90;;;16.10;99.90;;;;;;4968873;28;20543;-67
2023/09/29 04:26:20;;;;;;;1999.90;999.90;;;16.20;99.90;;;;;;5010968;28;20433;-67
2023/09/29 04:28:46;;;;;;;1999.90;999.90;;;16.20;99.90;;;;;;4985077;28;20038;-67
2023/09/29 04:31:13;;;;;;;1999.90;999.90;;;16.20;99.90;;;;;;5013768;28;20050;-67
2023/09/29 04:33:39;;;;;;;1999.90;999.90;;;16.30;99.90;;;;;;4976303;28;20070;-67
2023/09/29 04:36:06;;;;;;;1999.90;999.90;;;16.30;99.90;;;;;;4984271;28;20046;-67
2023/09/29 04:38:32;;;;;;;1999.90;999.90;;;16.30;99.90;;;;;;4987317;28;20380;-67
2023/09/29 04:40:58;;;;;;;1999.90;999.90;;;16.30;99.90;;;;;;4980552;28;20059;-67
2023/09/29 04:43:24;;;;;;;1999.90;999.90;;;16.30;99.90;;;;;;4982655;28;20061;-67
2023/09/29 04:45:50;;;;;;;1999.90;999.90;;;16.20;99.90;;;;;;4983228;28;20128;-67
2023/09/29 04:48:16;;;;;;;1999.90;999.90;;;16.20;99.90;;;;;;5008329;28;20061;-67
2023/09/29 04:50:42;;;;;;;1999.90;999.90;;;16.20;99.90;;;;;;4980397;28;20781;-67
2023/09/29 04:53:08;;;;;;;1999.90;999.90;;;16.20;99.90;;;;;;4988043;28;20053;-67
2023/09/29 04:55:33;;;;;;;1999.90;999.90;;;16.20;99.90;;;;;;4987842;28;20070;-67
2023/09/29 04:57:59;;;;;;;1999.90;999.90;;;16.20;99.90;;;;;;4981449;28;20034;-67
2023/09/29 05:00:25;;;;;;;1999.90;999.90;;;16.20;99.90;;;;;;4970469;28;20115;-67
2023/09/29 05:02:50;;;;;;;1999.90;999.90;;;16.20;99.90;;;;;;4985326;28;20054;-67
2023/09/29 05:05:16;;;;;;;1999.90;999.90;;;16.20;99.90;;;;;;4982497;28;20103;-67
2023/09/29 05:07:45;;;;;;;1999.90;999.90;;;16.20;99.90;;;;;;4987518;28;20072;-67
2023/09/29 05:10:13;;;;;;;1999.90;999.90;;;16.20;99.90;;;;;;4982406;28;20053;-67
2023/09/29 05:12:40;;;;;;;1999.90;999.90;;;16.20;99.90;;;;;;4980587;28;20449;-67
2023/09/29 05:15:07;;;;;;;1999.90;999.90;;;16.20;99.90;;;;;;4977665;28;20070;-67
2023/09/29 05:17:34;;;;;;;1999.90;999.90;;;16.20;99.90;;;;;;4971952;28;20043;-68
2023/09/29 05:19:59;;;;;;;1999.90;999.90;;;16.30;99.90;;;;;;4984478;28;20042;-67
2023/09/29 05:22:25;;;;;;;1999.90;999.90;;;16.30;99.90;;;;;;4985059;28;20049;-68
2023/09/29 05:24:53;;;;;;;1999.90;999.90;;;16.30;99.90;;;;;;4987343;28;20506;-67
2023/09/29 05:27:19;;;;;;;1999.90;999.90;;;16.30;99.90;;;;;;4982457;28;20549;-67
2023/09/29 05:29:45;;;;;;;1999.90;999.90;;;16.20;99.90;;;;;;4981191;28;20035;-67
2023/09/29 05:32:10;;;;;;;1999.90;999.90;;;16.20;99.90;;;;;;4980590;28;20662;-66
2023/09/29 05:34:36;;;;;;;1999.90;999.90;;;16.20;99.90;;;;;;4985176;28;20058;-67
2023/09/29 05:37:02;;;;;;;1999.90;999.90;;;16.10;99.90;;;;;;4984869;28;20038;-67
2023/09/29 05:39:28;;;;;;;1999.90;999.90;;;16.10;99.90;;;;;;4987352;28;20038;-67
2023/09/29 05:41:53;;;;;;;1999.90;999.90;;;16.20;99.90;;;;;;4978224;28;20065;-67
2023/09/29 05:44:19;;;;;;;1999.90;999.90;;;16.10;99.90;;;;;;4977534;28;20042;-67
2023/09/29 05:46:44;;;;;;;1999.90;999.90;;;16.20;99.90;;;;;;4978139;28;20612;-67
2023/09/29 05:49:10;;;;;;;1999.90;999.90;;;16.20;99.90;;;;;;4978272;28;20046;-67
2023/09/29 05:51:36;;;;;;;1999.90;999.90;;;16.20;99.90;;;;;;4976635;28;20399;-67
2023/09/29 05:54:03;;;;;;;1999.90;999.90;;;16.20;99.90;;;;;;4979371;28;20049;-67
2023/09/29 05:56:31;;;;;;;1999.90;999.90;;;16.10;99.90;;;;;;4979247;28;20559;-67
2023/09/29 05:58:57;;;;;;;1999.90;999.90;;;16.10;99.90;;;;;;4983717;28;20084;-67
2023/09/29 06:01:25;;;;;;;1999.90;999.90;;;16.10;99.90;;;;;;4973476;28;20046;-67
2023/09/29 06:03:51;;;;;;;1999.90;999.90;;;16.10;99.90;;;;;;4999931;28;20415;-67
2023/09/29 06:06:17;;;;;;;1999.90;999.90;;;16.20;99.90;;;;;;5038212;28;20045;-67
2023/09/29 06:08:44;;;;;;;1999.90;999.90;;;16.20;99.90;;;;;;4985604;28;20038;-67
2023/09/29 06:11:10;;;;;;;1999.90;999.90;;;16.20;99.90;;;;;;4982582;28;20043;-67
2023/09/29 06:13:37;;;;;;;1999.90;999.90;;;16.20;99.90;;;;;;4979348;28;20038;-67
2023/09/29 06:16:04;;;;;;;1999.90;999.90;;;16.20;99.90;;;;;;4979715;28;20491;-67
2023/09/29 06:18:30;;;;;;;1999.90;999.90;;;16.20;99.90;;;;;;4981952;28;20065;-67
2023/09/29 06:20:55;;;;;;;1999.90;999.90;;;16.20;99.90;;;;;;4974999;28;20042;-67
2023/09/29 06:23:21;;;;;;;1999.90;999.90;;;16.30;99.90;;;;;;4982444;28;20099;-67
2023/09/29 06:25:47;;;;;;;1999.90;999.90;;;16.30;99.90;;;;;;4984544;28;20498;-67
2023/09/29 06:28:12;;;;;;;1999.90;999.90;;;16.30;99.90;;;;;;4976396;28;20039;-67
2023/09/29 06:30:38;;;;;;;1999.90;999.90;;;16.30;99.90;;;;;;4982510;28;20051;-67
2023/09/29 06:33:04;;;;;;;1999.90;999.90;;;16.30;99.90;;;;;;4979163;28;20099;-67
2023/09/29 06:35:30;;;;;;;1999.90;999.90;;;16.30;99.90;;;;;;4989863;28;20042;-67
2023/09/29 06:37:56;;;;;;;1999.90;999.90;;;16.30;99.90;;;;;;4985713;28;20471;-67
2023/09/29 06:40:23;;;;;;;1999.90;999.90;;;16.30;99.90;;;;;;4980966;28;20125;-67
2023/09/29 06:42:48;;;;;;;1999.90;999.90;;;16.30;99.90;;;;;;4969057;28;20058;-67
2023/09/29 06:45:14;;;;;;;1999.90;999.90;;;16.30;99.90;;;;;;4972701;28;20050;-67
2023/09/29 06:47:40;;;;;;;1999.90;999.90;;;16.40;99.90;;;;;;4993319;28;20459;-67
2023/09/29 06:50:10;;;;;;;1999.90;999.90;;;16.40;99.90;;;;;;4980667;28;20039;-67
2023/09/29 06:52:37;;;;;;;1999.90;999.90;;;16.50;99.90;;;;;;4972924;28;20108;-67
2023/09/29 06:55:03;;;;;;;1999.90;999.90;;;16.60;99.90;;;;;;4980465;28;20042;-67
2023/09/29 06:57:29;;;;;;;1999.90;999.90;;;16.60;99.90;;;;;;4992421;28;20102;-67
2023/09/29 06:59:54;;;;;;;1999.90;999.90;;;16.70;99.90;;;;;;4972336;28;20043;-67
2023/09/29 07:02:20;;;;;;;1999.90;999.90;;;16.70;99.90;;;;;;4971353;28;20130;-68
2023/09/29 07:04:47;;;;;;;1999.90;999.90;;;16.80;99.90;;;;;;5014571;28;20131;-67
2023/09/29 07:07:13;;;;;;;1999.90;999.90;;;16.90;99.90;;;;;;4997940;28;20554;-67
2023/09/29 07:09:39;;;;;;;1999.90;999.90;;;17.00;99.90;;;;;;4987002;28;20054;-67
2023/09/29 07:12:06;;;;;;;1999.90;999.90;;;17.10;99.90;;;;;;4981613;28;20409;-67
2023/09/29 07:14:32;;;;;;;1999.90;999.90;;;17.10;99.90;;;;;;4973456;28;20050;-67
2023/09/29 07:16:58;;;;;;;1999.90;999.90;;;17.20;99.90;;;;;;4970287;28;20054;-67
2023/09/29 07:19:23;;;;;;;1999.90;999.90;;;17.20;99.90;;;;;;4977401;28;20081;-67
2023/09/29 07:21:49;;;;;;;1999.90;999.90;;;17.30;99.90;;;;;;4992499;28;20163;-67
2023/09/29 07:24:14;;;;;;;1999.90;999.90;;;17.30;99.90;;;;;;4980376;28;20034;-67
2023/09/29 07:26:40;;;;;;;1999.90;999.90;;;17.40;99.90;;;;;;4993643;28;20046;-68
2023/09/29 07:29:06;;;;;;;1999.90;999.90;;;17.50;99.90;;;;;;5013645;27;20042;-67
2023/09/29 07:31:36;;;;;;;1999.90;999.90;;;17.50;99.90;;;;;;4996437;28;20441;-68
2023/09/29 07:34:02;;;;;;;1999.90;999.90;;;17.60;99.90;;;;;;4984936;28;20041;-67
2023/09/29 07:36:30;;;;;;;1999.90;999.90;;;17.70;99.90;;;;;;4983921;28;20047;-68
2023/09/29 07:38:56;;;;;;;1999.90;999.90;;;17.80;99.90;;;;;;5046946;27;20165;-67
2023/09/29 07:41:21;;;;;;;1999.90;999.90;;;17.80;99.90;;;;;;4992874;28;20050;-68
2023/09/29 07:43:47;;;;;;;1999.90;999.90;;;17.90;99.90;;;;;;4979321;28;20054;-67
2023/09/29 07:46:13;;;;;;;1999.90;999.90;;;18.00;99.90;;;;;;5002743;27;20051;-67
2023/09/29 07:48:38;;;;;;;1999.90;999.90;;;18.10;99.90;;;;;;4987906;28;20039;-67
2023/09/29 07:51:04;;;;;;;1999.90;999.90;;;18.30;99.90;;;;;;4981643;28;20043;-68
2023/09/29 07:53:30;;;;;;;1999.90;999.90;;;18.40;99.90;;;;;;4986166;28;20130;-67
2023/09/29 07:55:55;;;;;;;1999.90;999.90;;;18.60;99.90;;;;;;5001443;28;20031;-67
2023/09/29 07:58:21;;;;;;;1999.90;999.90;;;18.70;99.90;;;;;;4988777;28;20164;-68
2023/09/29 08:00:46;;;;;;;1999.90;999.90;;;18.80;99.90;;;;;;5029418;27;20081;-67
2023/09/29 08:03:12;;;;;;;1999.90;999.90;;;18.90;99.90;;;;;;5006186;28;20046;-67
2023/09/29 08:05:38;;;;;;;1999.90;999.90;;;19.00;99.90;;;;;;5000678;28;20052;-68
2023/09/29 08:08:05;;;;;;;1999.90;999.90;;;19.10;99.90;;;;;;4991233;28;20038;-68
2023/09/29 08:10:30;;;;;;;1999.90;999.90;;;19.20;99.90;;;;;;4975096;28;20051;-68
2023/09/29 08:12:56;;;;;;;1999.90;999.90;;;19.20;99.90;;;;;;4977948;28;20070;-68
2023/09/29 08:15:21;;;;;;;1999.90;999.90;;;19.30;99.90;;;;;;4998702;28;20034;-67
2023/09/29 08:17:47;;;;;;;1999.90;999.90;;;19.40;99.90;;;;;;5015783;28;20118;-68
2023/09/29 08:20:14;;;;;;;1999.90;999.90;;;19.50;99.90;;;;;;4991009;28;20042;-67
2023/09/29 08:22:40;;;;;;;1999.90;999.90;;;19.50;99.90;;;;;;4974795;28;20046;-68
2023/09/29 08:25:08;;;;;;;1999.90;999.90;;;19.60;99.90;;;;;;4985404;28;20172;-68
2023/09/29 08:27:35;;;;;;;1999.90;999.90;;;19.60;99.90;;;;;;5030876;28;20112;-68
2023/09/29 08:30:01;;;;;;;1999.90;999.90;;;19.70;99.90;;;;;;4984262;28;20456;-68
2023/09/29 08:32:27;;;;;;;1999.90;999.90;;;19.80;99.90;;;;;;4983303;28;20095;-68
2023/09/29 08:34:52;;;;;;;1999.90;999.90;;;19.90;99.90;;;;;;4987065;28;20040;-68
2023/09/29 08:37:18;;;;;;;1999.90;999.90;;;20.00;99.90;;;;;;4979542;28;20534;-67
2023/09/29 08:39:44;;;;;;;1999.90;999.90;;;20.10;99.90;;;;;;4984326;28;20054;-67
2023/09/29 08:42:35;;;;;;;1999.90;999.90;;;20.30;99.90;;;;;;4977773;28;20200;-68
2023/09/29 08:45:03;;;;;;;1999.90;999.90;;;20.50;99.90;;;;;;4976553;28;20499;-68
2023/09/29 08:47:30;;;;;;;1999.90;999.90;;;20.80;99.90;;;;;;4977965;28;20057;-67
2023/09/29 08:49:59;;;;;;;1999.90;999.90;;;20.90;99.90;;;;;;4981419;28;20058;-68
2023/09/29 08:52:29;;;;;;;1999.90;999.90;;;21.00;99.90;;;;;;4978926;28;20069;-68
2023/09/29 08:54:56;;;;;;;304.40;290.60;;;21.20;99.90;;;;;;4985166;28;20034;-68
2023/09/29 08:57:23;;;;;;;301.60;287.90;;;21.40;99.90;;;;;;4974612;28;20070;-68
2023/09/29 08:59:52;;;;;;;337.70;321.73;;;21.50;99.90;;;;;;4975469;28;20497;-68
2023/09/29 09:02:18;;;;;;;351.50;334.67;;;21.40;99.90;;;;;;4972609;28;20383;-68
2023/09/29 09:04:43;;;;;;;400.15;380.50;;;21.40;99.90;;;;;;4971214;28;20035;-68
2023/09/29 09:07:09;;;;;;;412.20;391.95;;;21.20;99.90;;;;;;4972265;28;20046;-67
2023/09/29 09:09:36;;;;;;;375.65;357.35;;;21.00;99.90;;;;;;4976149;28;20038;-68
2023/09/29 09:12:02;;;;;;;311.65;297.33;;;20.90;99.90;;;;;;4973024;28;20192;-68
2023/09/29 09:14:42;;;;;;;309.33;295.20;;;20.90;99.90;;;;;;4978545;28;20552;-68
2023/09/29 09:17:09;;;;;;;336.30;320.23;;;20.80;99.90;;;;;;4976278;28;20049;-68
2023/09/29 09:19:51;;;;;;;323.90;308.60;;;20.90;99.90;;;;;;4974044;28;20628;-68
2023/09/29 09:22:18;;;;;;;296.10;282.02;;;20.80;99.90;;;;;;4980829;28;20296;-68
2023/09/29 09:24:44;;;;;;;324.80;309.90;;;20.80;99.90;;;;;;4987788;28;20117;-68
2023/09/29 09:27:11;;;;;;;286.52;273.10;;;20.70;99.90;;;;;;4971487;28;20113;-68
2023/09/29 09:29:44;;;;;;;339.35;323.67;;;20.70;99.90;;;;;;4986221;28;20050;-67
2023/09/29 09:32:14;;;;;;;337.67;321.95;;;20.70;99.90;;;;;;4983670;28;20042;-68
2023/09/29 09:34:41;;;;;;;309.67;295.63;;;20.80;99.90;;;;;;4984094;28;20545;-67
2023/09/29 09:37:08;;;;;;;314.63;300.35;;;20.80;99.90;;;;;;4972930;28;20833;-68
2023/09/29 09:39:34;;;;;;;304.08;290.23;;;20.90;99.90;;;;;;4987279;28;20027;-67
2023/09/29 09:42:05;;;;;;;332.92;317.13;;;21.00;99.90;;;;;;4984803;28;20464;-68
2023/09/29 09:44:32;;;;;;;314.27;299.55;;;21.10;99.90;;;;;;4978773;28;20039;-68
2023/09/29 09:47:03;;;;;;;270.23;258.00;;;21.30;99.90;;;;;;4976031;28;20074;-68
2023/09/29 09:49:50;;;;;;;271.35;259.08;;;21.40;99.90;;;;;;4982920;28;20042;-67
2023/09/29 09:52:34;;;;;;;268.65;256.80;;;21.50;99.90;;;;;;4977444;28;20504;-68
2023/09/29 09:55:11;;;;;;;353.38;335.92;;;21.60;99.90;;;;;;4976480;28;20077;-68
2023/09/29 09:57:38;;;;;;;341.13;324.77;;;21.60;99.90;;;;;;4985240;28;20042;-67
2023/09/29 10:00:07;;;;;;;468.17;443.77;;;21.40;99.90;;;;;;4974478;28;20051;-68
2023/09/29 10:02:39;;;;;;;396.05;375.95;;;21.30;99.90;;;;;;4981636;28;20073;-67
2023/09/29 10:05:16;;;;;;;372.63;353.83;;;21.30;99.90;;;;;;4986220;28;20103;-68
2023/09/29 10:07:48;;;;;;;380.40;360.95;;;21.30;99.90;;;;;;4983152;28;20672;-68
2023/09/29 10:10:32;;;;;;;411.10;389.85;;;21.30;99.90;;;;;;4979530;28;20038;-68
2023/09/29 10:13:05;;;;;;;418.40;396.67;;;21.40;99.90;;;;;;4982508;28;20057;-68
2023/09/29 10:15:32;;;;;;;456.60;432.63;;;21.40;99.90;;;;;;4959053;28;20054;-67
2023/09/29 10:17:58;;;;;;;475.25;450.52;;;21.30;99.90;;;;;;4984291;28;20387;-68
2023/09/29 10:20:27;;;;;;;346.38;328.58;;;21.30;99.90;;;;;;4972125;28;20045;-68
2023/09/29 10:23:09;;;;;;;465.17;440.55;;;21.30;99.90;;;;;;4982355;28;20066;-68
2023/09/29 10:25:39;;;;;;;473.50;448.55;;;21.20;99.90;;;;;;4983340;28;20398;-68
2023/09/29 10:28:07;;;;;;;479.23;454.10;;;21.10;99.90;;;;;;4999081;28;20043;-69
2023/09/29 10:30:39;;;;;;;436.40;413.40;;;21.00;99.90;;;;;;4982277;28;20051;-68
2023/09/29 10:33:13;;;;;;;468.00;442.83;;;21.00;99.90;;;;;;5033057;28;20664;-68
2023/09/29 10:35:46;;;;;;;449.70;425.88;;;20.90;99.90;;;;;;4980298;28;20035;-68
2023/09/29 10:38:26;;;;;;;387.05;367.45;;;20.90;99.90;;;;;;4979148;28;20103;-68
2023/09/29 10:40:55;;;;;;;354.77;336.73;;;20.90;99.90;;;;;;4981452;28;20051;-67
2023/09/29 10:43:23;;;;;;;362.38;343.88;;;20.80;99.90;;;;;;4988007;28;20483;-68
2023/09/29 10:45:50;;;;;;;375.33;356.48;;;20.70;99.90;;;;;;4961144;28;20092;-68
2023/09/29 10:48:19;;;;;;;336.67;320.23;;;20.70;99.90;;;;;;5016037;28;20058;-68
2023/09/29 10:50:50;;;;;;;350.10;333.10;;;20.70;99.90;;;;;;4970651;28;20050;-68
2023/09/29 10:53:18;;;;;;;321.00;305.35;;;20.80;99.90;;;;;;4977019;28;20173;-68
2023/09/29 10:55:54;;;;;;;275.25;262.27;;;21.00;99.90;;;;;;5003148;28;20121;-68
2023/09/29 10:58:21;;;;;;;330.70;314.52;;;21.10;99.90;;;;;;4977494;28;20043;-68
2023/09/29 11:00:51;;;;;;;299.05;284.80;;;21.10;99.90;;;;;;4975616;28;20050;-68
2023/09/29 11:03:22;;;;;;;306.58;291.88;;;21.10;99.90;;;;;;4975208;28;20058;-68
2023/09/29 11:05:51;;;;;;;304.10;289.52;;;20.90;99.90;;;;;;4983022;28;20062;-68
2023/09/29 11:08:21;;;;;;;280.23;267.13;;;20.90;99.90;;;;;;4967428;28;20465;-68
2023/09/29 11:10:58;;;;;;;295.80;281.75;;;20.80;99.90;;;;;;4968091;28;20047;-68
2023/09/29 11:13:24;;;;;;;298.55;284.33;;;20.80;99.90;;;;;;4972266;28;20117;-68
2023/09/29 11:15:51;;;;;;;280.83;267.77;;;20.70;99.90;;;;;;4980414;28;20042;-68
2023/09/29 11:18:34;;;;;;;292.25;278.60;;;20.80;99.90;;;;;;4967238;28;20053;-68
2023/09/29 11:21:12;;;;;;;292.92;279.35;;;20.70;99.90;;;;;;4977219;28;20077;-68
2023/09/29 11:23:45;;;;;;;337.42;320.95;;;20.70;99.90;;;;;;4982705;28;20039;-68
2023/09/29 11:26:12;;;;;;;330.77;314.25;;;20.60;99.90;;;;;;4979459;28;20125;-67
2023/09/29 11:28:42;;;;;;;354.77;337.17;;;20.60;99.90;;;;;;4979385;28;20491;-68
2023/09/29 11:31:11;;;;;;;316.63;301.20;;;20.50;99.90;;;;;;5016272;28;20521;-68
2023/09/29 11:33:39;;;;;;;362.75;344.65;;;20.50;99.90;;;;;;4989311;28;20030;-68
2023/09/29 11:36:15;;;;;;;347.45;330.48;;;20.40;99.90;;;;;;4976427;28;20138;-68
2023/09/29 11:38:45;;;;;;;355.15;337.45;;;20.30;99.90;;;;;;4997215;28;20460;-68
2023/09/29 11:41:12;;;;;;;262.35;250.57;;;20.30;99.90;;;;;;4992300;28;20422;-68
2023/09/29 11:43:41;;;;;;;1999.90;999.90;;;20.30;99.90;;;;;;4996923;28;20122;-68
2023/09/29 11:46:07;;;;;;;1999.90;999.90;;;20.30;99.90;;;;;;4992760;28;20028;-68
2023/09/29 11:48:33;;;;;;;1999.90;999.90;;;20.30;99.90;;;;;;5011204;28;20122;-68
2023/09/29 11:50:59;;;;;;;1999.90;999.90;;;20.40;99.90;;;;;;4975164;28;20387;-68
2023/09/29 11:53:25;;;;;;;683.03;424.88;;;20.40;99.90;;;;;;5001610;28;20039;-68
2023/09/29 11:55:51;;;;;;;1999.90;999.90;;;20.40;99.90;;;;;;4977014;28;20463;-68
2023/09/29 11:58:17;;;;;;;697.53;438.33;;;20.30;99.90;;;;;;4979787;28;20054;-67
2023/09/29 12:00:43;;;;;;;1999.90;999.90;;;20.20;99.90;;;;;;4975241;28;20124;-68
2023/09/29 12:03:08;;;;;;;1571.05;817.88;;;20.20;99.90;;;;;;5017756;28;20034;-68
2023/09/29 12:05:35;;;;;;;1999.90;999.90;;;20.20;99.90;;;;;;4993674;28;20410;-68